sensor_id;sensor_type;location;lat;lon;timestamp;temperature;humidity
7046;DHT22;3564;53.326;10.356;2024-02-23T00:02:18;12.50;99.90
7046;DHT22;3564;53.326;10.356;2024-02-23T00:04:44;12.40;99.90
7046;DHT22;3564;53.326;10.356;2024-02-23T00:07:13;12.30;99.90
7046;DHT22;3564;53.326;10.356;2024-02-23T00:09:38;12.30;99.90
7046;DHT22;3564;53.326;10.356;2024-02-23T00:12:04;12.30;99.90
7046;DHT22;3564;53.326;10.356;2024-02-23T00:14:30;12.30;99.90
7046;DHT22;3564;53.326;10.356;2024-02-23T00:16:56;12.30;99.90
7046;DHT22;3564;53.326;10.356;2024-02-23T00:19:23;12.20;99.90
7046;DHT22;3564;53.326;10.356;2024-02-23T00:21:52;12.20;99.90
7046;DHT22;3564;53.326;10.356;2024-02-23T00:24:18;12.20;99.90
7046;DHT22;3564;53.326;10.356;2024-02-23T00:26:49;12.30;99.90
7046;DHT22;3564;53.326;10.356;2024-02-23T00:29:19;12.30;99.90
7046;DHT22;3564;53.326;10.356;2024-02-23T00:31:44;12.20;99.90
7046;DHT22;3564;53.326;10.356;2024-02-23T00:34:21;12.20;99.90
7046;DHT22;3564;53.326;10.356;2024-02-23T00:36:50;12.10;99.90
7046;DHT22;3564;53.326;10.356;2024-02-23T00:39:16;12.10;99.90
7046;DHT22;3564;53.326;10.356;2024-02-23T00:41:42;12.00;99.90
7046;DHT22;3564;53.326;10.356;2024-02-23T00:44:07;12.10;99.90
7046;DHT22;3564;53.326;10.356;2024-02-23T00:46:35;12.00;99.90
7046;DHT22;3564;53.326;10.356;2024-02-23T00:49:01;12.10;99.90
7046;DHT22;3564;53.326;10.356;2024-02-23T00:51:27;12.00;99.90
7046;DHT22;3564;53.326;10.356;2024-02-23T00:53:53;12.00;99.90
7046;DHT22;3564;53.326;10.356;2024-02-23T00:56:28;12.00;99.90
7046;DHT22;3564;53.326;10.356;2024-02-23T00:58:53;12.00;99.90
7046;DHT22;3564;53.326;10.356;2024-02-23T01:01:19;12.00;99.90
7046;DHT22;3564;53.326;10.356;2024-02-23T01:03:44;11.90;99.90
7046;DHT22;3564;53.326;10.356;2024-02-23T01:06:16;11.90;99.90
7046;DHT22;3564;53.326;10.356;2024-02-23T01:08:42;11.90;99.90
7046;DHT22;3564;53.326;10.356;2024-02-23T01:11:11;11.90;99.90
7046;DHT22;3564;53.326;10.356;2024-02-23T01:13:36;11.80;99.90
7046;DHT22;3564;53.326;10.356;2024-02-23T01:16:02;11.80;99.90
7046;DHT22;3564;53.326;10.356;2024-02-23T01:18:28;11.80;99.90
7046;DHT22;3564;53.326;10.356;2024-02-23T01:20:53;11.80;99.90
7046;DHT22;3564;53.326;10.356;2024-02-23T01:23:19;11.80;99.90
7046;DHT22;3564;53.326;10.356;2024-02-23T01:25:45;11.80;99.90
7046;DHT22;3564;53.326;10.356;2024-02-23T01:28:10;11.80;99.90
7046;DHT22;3564;53.326;10.356;2024-02-23T01:30:39;11.80;99.90
7046;DHT22;3564;53.326;10.356;2024-02-23T01:33:04;11.80;99.90
7046;DHT22;3564;53.326;10.356;2024-02-23T01:35:30;11.80;99.90
7046;DHT22;3564;53.326;10.356;2024-02-23T01:37:55;11.70;99.90
7046;DHT22;3564;53.326;10.356;2024-02-23T01:40:21;11.70;99.90
7046;DHT22;3564;53.326;10.356;2024-02-23T01:42:46;11.60;99.90
7046;DHT22;3564;53.326;10.356;2024-02-23T01:45:12;11.40;99.90
7046;DHT22;3564;53.326;10.356;2024-02-23T01:47:38;11.40;99.90
7046;DHT22;3564;53.326;10.356;2024-02-23T01:50:07;11.20;99.90
7046;DHT22;3564;53.326;10.356;2024-02-23T01:52:34;11.10;99.90
7046;DHT22;3564;53.326;10.356;2024-02-23T01:55:00;11.10;99.90
7046;DHT22;3564;53.326;10.356;2024-02-23T01:57:26;11.00;99.90
7046;DHT22;3564;53.326;10.356;2024-02-23T01:59:53;11.00;99.90
7046;DHT22;3564;53.326;10.356;2024-02-23T02:02:19;11.00;99.90
7046;DHT22;3564;53.326;10.356;2024-02-23T02:04:48;10.90;99.90
7046;DHT22;3564;53.326;10.356;2024-02-23T02:07:13;10.90;99.90
7046;DHT22;3564;53.326;10.356;2024-02-23T02:09:39;10.90;99.90
7046;DHT22;3564;53.326;10.356;2024-02-23T02:12:08;10.90;99.90
7046;DHT22;3564;53.326;10.356;2024-02-23T02:14:33;10.90;99.90
7046;DHT22;3564;53.326;10.356;2024-02-23T02:17:03;10.80;99.90
7046;DHT22;3564;53.326;10.356;2024-02-23T02:19:28;10.80;99.90
7046;DHT22;3564;53.326;10.356;2024-02-23T02:21:54;10.80;99.90
7046;DHT22;3564;53.326;10.356;2024-02-23T02:24:19;10.80;99.90
7046;DHT22;3564;53.326;10.356;2024-02-23T02:26:49;10.80;99.90
7046;DHT22;3564;53.326;10.356;2024-02-23T02:29:18;10.80;99.90
7046;DHT22;3564;53.326;10.356;2024-02-23T02:31:44;10.90;99.90
7046;DHT22;3564;53.326;10.356;2024-02-23T02:34:10;10.90;99.90
7046;DHT22;3564;53.326;10.356;2024-02-23T02:36:38;10.90;99.90
7046;DHT22;3564;53.326;10.356;2024-02-23T02:39:09;10.80;99.90
7046;DHT22;3564;53.326;10.356;2024-02-23T02:41:35;10.80;99.90
7046;DHT22;3564;53.326;10.356;2024-02-23T02:44:01;10.80;99.90
7046;DHT22;3564;53.326;10.356;2024-02-23T02:46:26;10.70;99.90
7046;DHT22;3564;53.326;10.356;2024-02-23T02:48:52;10.60;99.90
7046;DHT22;3564;53.326;10.356;2024-02-23T02:51:17;10.50;99.90
7046;DHT22;3564;53.326;10.356;2024-02-23T02:53:43;10.40;99.90
7046;DHT22;3564;53.326;10.356;2024-02-23T02:56:12;10.30;99.90
7046;DHT22;3564;53.326;10.356;2024-02-23T02:58:40;10.30;99.90
7046;DHT22;3564;53.326;10.356;2024-02-23T03:01:05;10.20;99.90
7046;DHT22;3564;53.326;10.356;2024-02-23T03:03:31;10.20;99.90
7046;DHT22;3564;53.326;10.356;2024-02-23T03:05:57;10.00;99.90
7046;DHT22;3564;53.326;10.356;2024-02-23T03:08:22;9.90;99.90
7046;DHT22;3564;53.326;10.356;2024-02-23T03:10:48;9.90;99.90
7046;DHT22;3564;53.326;10.356;2024-02-23T03:13:16;9.80;99.90
7046;DHT22;3564;53.326;10.356;2024-02-23T03:15:45;9.80;99.90
7046;DHT22;3564;53.326;10.356;2024-02-23T03:18:13;9.80;99.90
7046;DHT22;3564;53.326;10.356;2024-02-23T03:20:43;9.80;99.90
7046;DHT22;3564;53.326;10.356;2024-02-23T03:23:09;9.80;99.90
7046;DHT22;3564;53.326;10.356;2024-02-23T03:25:35;9.80;99.90
7046;DHT22;3564;53.326;10.356;2024-02-23T03:28:00;9.90;99.90
7046;DHT22;3564;53.326;10.356;2024-02-23T03:30:26;9.90;99.90
7046;DHT22;3564;53.326;10.356;2024-02-23T03:32:52;9.90;99.90
7046;DHT22;3564;53.326;10.356;2024-02-23T03:35:17;9.80;99.90
7046;DHT22;3564;53.326;10.356;2024-02-23T03:37:43;9.70;99.90
7046;DHT22;3564;53.326;10.356;2024-02-23T03:40:09;9.70;99.90
7046;DHT22;3564;53.326;10.356;2024-02-23T03:42:35;9.70;99.90
7046;DHT22;3564;53.326;10.356;2024-02-23T03:45:01;9.70;99.90
7046;DHT22;3564;53.326;10.356;2024-02-23T03:47:27;9.70;99.90
7046;DHT22;3564;53.326;10.356;2024-02-23T03:49:54;9.70;99.90
7046;DHT22;3564;53.326;10.356;2024-02-23T03:52:19;9.70;99.90
7046;DHT22;3564;53.326;10.356;2024-02-23T03:54:45;9.70;99.90
7046;DHT22;3564;53.326;10.356;2024-02-23T03:57:10;9.70;99.90
7046;DHT22;3564;53.326;10.356;2024-02-23T03:59:36;9.70;99.90
7046;DHT22;3564;53.326;10.356;2024-02-23T04:02:03;9.60;99.90
7046;DHT22;3564;53.326;10.356;2024-02-23T04:04:29;9.60;99.90
7046;DHT22;3564;53.326;10.356;2024-02-23T04:06:54;9.50;99.90
7046;DHT22;3564;53.326;10.356;2024-02-23T04:09:20;9.50;99.90
7046;DHT22;3564;53.326;10.356;2024-02-23T04:11:47;9.40;99.90
7046;DHT22;3564;53.326;10.356;2024-02-23T04:14:14;9.40;99.90
7046;DHT22;3564;53.326;10.356;2024-02-23T04:16:39;9.30;99.90
7046;DHT22;3564;53.326;10.356;2024-02-23T04:19:08;9.30;99.90
7046;DHT22;3564;53.326;10.356;2024-02-23T04:21:36;9.20;99.90
7046;DHT22;3564;53.326;10.356;2024-02-23T04:24:05;9.30;99.90
7046;DHT22;3564;53.326;10.356;2024-02-23T04:26:31;9.30;99.90
7046;DHT22;3564;53.326;10.356;2024-02-23T04:28:57;9.20;99.90
7046;DHT22;3564;53.326;10.356;2024-02-23T04:31:22;9.20;99.90
7046;DHT22;3564;53.326;10.356;2024-02-23T04:33:51;9.20;99.90
7046;DHT22;3564;53.326;10.356;2024-02-23T04:36:19;9.20;99.90
7046;DHT22;3564;53.326;10.356;2024-02-23T04:38:46;9.20;99.90
7046;DHT22;3564;53.326;10.356;2024-02-23T04:41:12;9.10;99.90
7046;DHT22;3564;53.326;10.356;2024-02-23T04:43:37;9.10;99.90
7046;DHT22;3564;53.326;10.356;2024-02-23T04:46:03;9.00;99.90
7046;DHT22;3564;53.326;10.356;2024-02-23T04:48:28;9.00;99.90
7046;DHT22;3564;53.326;10.356;2024-02-23T04:50:56;9.00;99.90
7046;DHT22;3564;53.326;10.356;2024-02-23T04:53:25;9.00;99.90
7046;DHT22;3564;53.326;10.356;2024-02-23T04:55:51;8.90;99.90
7046;DHT22;3564;53.326;10.356;2024-02-23T04:58:19;8.80;99.90
7046;DHT22;3564;53.326;10.356;2024-02-23T05:00:46;8.80;99.90
7046;DHT22;3564;53.326;10.356;2024-02-23T05:03:17;8.80;99.90
7046;DHT22;3564;53.326;10.356;2024-02-23T05:05:43;8.80;99.90
7046;DHT22;3564;53.326;10.356;2024-02-23T05:08:09;8.80;99.90
7046;DHT22;3564;53.326;10.356;2024-02-23T05:10:35;8.80;99.90
7046;DHT22;3564;53.326;10.356;2024-02-23T05:13:00;8.80;99.90
7046;DHT22;3564;53.326;10.356;2024-02-23T05:15:26;8.70;99.90
7046;DHT22;3564;53.326;10.356;2024-02-23T05:17:52;8.80;99.90
7046;DHT22;3564;53.326;10.356;2024-02-23T05:20:17;8.80;99.90
7046;DHT22;3564;53.326;10.356;2024-02-23T05:22:46;8.80;99.90
7046;DHT22;3564;53.326;10.356;2024-02-23T05:25:11;8.80;99.90
7046;DHT22;3564;53.326;10.356;2024-02-23T05:27:37;8.80;99.90
7046;DHT22;3564;53.326;10.356;2024-02-23T05:30:03;8.80;99.90
7046;DHT22;3564;53.326;10.356;2024-02-23T05:32:31;8.80;99.90
7046;DHT22;3564;53.326;10.356;2024-02-23T05:34:57;8.90;99.90
7046;DHT22;3564;53.326;10.356;2024-02-23T05:37:25;8.90;99.90
7046;DHT22;3564;53.326;10.356;2024-02-23T05:40:01;8.90;99.90
7046;DHT22;3564;53.326;10.356;2024-02-23T05:42:34;8.90;99.90
7046;DHT22;3564;53.326;10.356;2024-02-23T05:45:00;9.00;99.90
7046;DHT22;3564;53.326;10.356;2024-02-23T05:47:25;8.90;99.90
7046;DHT22;3564;53.326;10.356;2024-02-23T05:49:51;8.90;99.90
7046;DHT22;3564;53.326;10.356;2024-02-23T05:52:16;8.90;99.90
7046;DHT22;3564;53.326;10.356;2024-02-23T05:54:45;9.00;99.90
7046;DHT22;3564;53.326;10.356;2024-02-23T05:57:10;8.90;99.90
7046;DHT22;3564;53.326;10.356;2024-02-23T05:59:36;8.90;99.90
7046;DHT22;3564;53.326;10.356;2024-02-23T06:02:01;9.00;99.90
7046;DHT22;3564;53.326;10.356;2024-02-23T06:04:27;8.90;99.90
7046;DHT22;3564;53.326;10.356;2024-02-23T06:06:53;8.90;99.90
7046;DHT22;3564;53.326;10.356;2024-02-23T06:09:18;8.90;99.90
7046;DHT22;3564;53.326;10.356;2024-02-23T06:11:44;8.90;99.90
7046;DHT22;3564;53.326;10.356;2024-02-23T06:14:10;8.90;99.90
7046;DHT22;3564;53.326;10.356;2024-02-23T06:16:36;8.90;99.90
7046;DHT22;3564;53.326;10.356;2024-02-23T06:19:02;8.80;99.90
7046;DHT22;3564;53.326;10.356;2024-02-23T06:21:29;8.80;99.90
7046;DHT22;3564;53.326;10.356;2024-02-23T06:23:55;8.80;99.90
7046;DHT22;3564;53.326;10.356;2024-02-23T06:26:21;8.80;99.90
7046;DHT22;3564;53.326;10.356;2024-02-23T06:28:46;8.80;99.90
7046;DHT22;3564;53.326;10.356;2024-02-23T06:31:17;8.80;99.90
7046;DHT22;3564;53.326;10.356;2024-02-23T06:33:45;8.80;99.90
7046;DHT22;3564;53.326;10.356;2024-02-23T06:36:14;8.80;99.90
7046;DHT22;3564;53.326;10.356;2024-02-23T06:38:40;8.80;99.90
7046;DHT22;3564;53.326;10.356;2024-02-23T06:41:05;8.80;99.90
7046;DHT22;3564;53.326;10.356;2024-02-23T06:43:32;8.70;99.90
7046;DHT22;3564;53.326;10.356;2024-02-23T06:45:58;8.70;99.90
7046;DHT22;3564;53.326;10.356;2024-02-23T06:48:23;8.70;99.90
7046;DHT22;3564;53.326;10.356;2024-02-23T06:50:49;8.70;99.90
7046;DHT22;3564;53.326;10.356;2024-02-23T06:53:18;8.70;99.90
7046;DHT22;3564;53.326;10.356;2024-02-23T06:55:46;8.70;99.90
7046;DHT22;3564;53.326;10.356;2024-02-23T06:58:12;8.70;99.90
7046;DHT22;3564;53.326;10.356;2024-02-23T07:00:39;8.70;99.90
7046;DHT22;3564;53.326;10.356;2024-02-23T07:03:05;8.70;99.90
7046;DHT22;3564;53.326;10.356;2024-02-23T07:05:31;8.70;99.90
7046;DHT22;3564;53.326;10.356;2024-02-23T07:07:57;8.70;99.90
7046;DHT22;3564;53.326;10.356;2024-02-23T07:10:23;8.80;99.90
7046;DHT22;3564;53.326;10.356;2024-02-23T07:12:50;8.70;99.90
7046;DHT22;3564;53.326;10.356;2024-02-23T07:15:19;8.70;99.90
7046;DHT22;3564;53.326;10.356;2024-02-23T07:17:45;8.80;99.90
7046;DHT22;3564;53.326;10.356;2024-02-23T07:20:11;8.80;99.90
7046;DHT22;3564;53.326;10.356;2024-02-23T07:22:43;8.80;99.90
7046;DHT22;3564;53.326;10.356;2024-02-23T07:25:09;8.80;99.90
7046;DHT22;3564;53.326;10.356;2024-02-23T07:27:34;8.80;99.90
7046;DHT22;3564;53.326;10.356;2024-02-23T07:30:00;8.80;99.90
7046;DHT22;3564;53.326;10.356;2024-02-23T07:32:26;8.80;99.90
7046;DHT22;3564;53.326;10.356;2024-02-23T07:34:52;8.80;99.90
7046;DHT22;3564;53.326;10.356;2024-02-23T07:37:18;8.80;99.90
7046;DHT22;3564;53.326;10.356;2024-02-23T07:39:44;8.80;99.90
7046;DHT22;3564;53.326;10.356;2024-02-23T07:42:09;8.80;99.90
7046;DHT22;3564;53.326;10.356;2024-02-23T07:44:36;8.80;99.90
7046;DHT22;3564;53.326;10.356;2024-02-23T07:47:06;8.80;99.90
7046;DHT22;3564;53.326;10.356;2024-02-23T07:49:31;8.90;99.90
7046;DHT22;3564;53.326;10.356;2024-02-23T07:52:00;8.90;99.90
7046;DHT22;3564;53.326;10.356;2024-02-23T07:54:26;8.90;99.90
7046;DHT22;3564;53.326;10.356;2024-02-23T07:56:51;8.90;99.90
7046;DHT22;3564;53.326;10.356;2024-02-23T07:59:17;8.90;99.90
7046;DHT22;3564;53.326;10.356;2024-02-23T08:01:42;9.00;99.90
7046;DHT22;3564;53.326;10.356;2024-02-23T08:04:08;9.00;99.90
7046;DHT22;3564;53.326;10.356;2024-02-23T08:06:34;9.00;99.90
7046;DHT22;3564;53.326;10.356;2024-02-23T08:08:59;9.00;99.90
7046;DHT22;3564;53.326;10.356;2024-02-23T08:11:25;9.00;99.90
7046;DHT22;3564;53.326;10.356;2024-02-23T08:13:50;9.00;99.90
7046;DHT22;3564;53.326;10.356;2024-02-23T08:16:16;9.10;99.90
7046;DHT22;3564;53.326;10.356;2024-02-23T08:18:45;9.00;99.90
7046;DHT22;3564;53.326;10.356;2024-02-23T08:21:11;9.00;99.90
7046;DHT22;3564;53.326;10.356;2024-02-23T08:23:37;9.00;99.90
7046;DHT22;3564;53.326;10.356;2024-02-23T08:26:06;9.10;99.90
7046;DHT22;3564;53.326;10.356;2024-02-23T08:28:31;9.10;99.90
7046;DHT22;3564;53.326;10.356;2024-02-23T08:30:57;9.10;99.90
7046;DHT22;3564;53.326;10.356;2024-02-23T08:33:23;9.20;99.90
7046;DHT22;3564;53.326;10.356;2024-02-23T08:35:48;9.10;99.90
7046;DHT22;3564;53.326;10.356;2024-02-23T08:38:16;9.20;99.90
7046;DHT22;3564;53.326;10.356;2024-02-23T08:40:43;9.20;99.90
7046;DHT22;3564;53.326;10.356;2024-02-23T08:43:10;9.20;99.90
7046;DHT22;3564;53.326;10.356;2024-02-23T08:45:39;9.30;99.90
7046;DHT22;3564;53.326;10.356;2024-02-23T08:48:05;9.30;99.90
7046;DHT22;3564;53.326;10.356;2024-02-23T08:50:30;9.30;99.90
7046;DHT22;3564;53.326;10.356;2024-02-23T08:52:59;9.30;99.90
7046;DHT22;3564;53.326;10.356;2024-02-23T08:55:25;9.40;99.90
7046;DHT22;3564;53.326;10.356;2024-02-23T08:57:54;9.40;99.90
7046;DHT22;3564;53.326;10.356;2024-02-23T09:00:19;9.40;99.90
7046;DHT22;3564;53.326;10.356;2024-02-23T09:02:45;9.40;99.90
7046;DHT22;3564;53.326;10.356;2024-02-23T09:05:11;9.50;99.90
7046;DHT22;3564;53.326;10.356;2024-02-23T09:07:39;9.50;99.90
7046;DHT22;3564;53.326;10.356;2024-02-23T09:10:05;9.60;99.90
7046;DHT22;3564;53.326;10.356;2024-02-23T09:12:30;9.60;99.90
7046;DHT22;3564;53.326;10.356;2024-02-23T09:14:56;9.60;99.90
7046;DHT22;3564;53.326;10.356;2024-02-23T09:17:21;9.70;99.90
7046;DHT22;3564;53.326;10.356;2024-02-23T09:19:48;9.70;99.90
7046;DHT22;3564;53.326;10.356;2024-02-23T09:22:20;9.70;99.90
7046;DHT22;3564;53.326;10.356;2024-02-23T09:24:45;9.80;99.90
7046;DHT22;3564;53.326;10.356;2024-02-23T09:27:20;9.80;99.90
7046;DHT22;3564;53.326;10.356;2024-02-23T09:29:48;9.70;99.90
7046;DHT22;3564;53.326;10.356;2024-02-23T09:32:17;9.70;99.90
7046;DHT22;3564;53.326;10.356;2024-02-23T09:34:43;9.90;99.90
7046;DHT22;3564;53.326;10.356;2024-02-23T09:37:11;9.90;99.90
7046;DHT22;3564;53.326;10.356;2024-02-23T09:39:37;10.00;99.90
7046;DHT22;3564;53.326;10.356;2024-02-23T09:42:05;10.00;99.90
7046;DHT22;3564;53.326;10.356;2024-02-23T09:44:33;10.10;99.90
7046;DHT22;3564;53.326;10.356;2024-02-23T09:47:06;10.10;99.90
7046;DHT22;3564;53.326;10.356;2024-02-23T09:49:40;10.10;99.90
7046;DHT22;3564;53.326;10.356;2024-02-23T09:52:09;10.10;99.90
7046;DHT22;3564;53.326;10.356;2024-02-23T09:54:37;10.10;99.90
7046;DHT22;3564;53.326;10.356;2024-02-23T09:57:07;10.20;99.90
7046;DHT22;3564;53.326;10.356;2024-02-23T09:59:36;10.20;99.90
7046;DHT22;3564;53.326;10.356;2024-02-23T10:02:09;10.20;99.90
7046;DHT22;3564;53.326;10.356;2024-02-23T10:04:44;10.20;99.90
7046;DHT22;3564;53.326;10.356;2024-02-23T10:07:10;10.30;99.60
7046;DHT22;3564;53.326;10.356;2024-02-23T10:09:36;10.30;99.60
7046;DHT22;3564;53.326;10.356;2024-02-23T10:12:02;10.20;99.40
7046;DHT22;3564;53.326;10.356;2024-02-23T10:14:28;10.20;99.40
7046;DHT22;3564;53.326;10.356;2024-02-23T10:16:56;10.30;99.90
7046;DHT22;3564;53.326;10.356;2024-02-23T10:19:25;10.30;99.90
7046;DHT22;3564;53.326;10.356;2024-02-23T10:21:57;10.50;99.90
7046;DHT22;3564;53.326;10.356;2024-02-23T10:24:23;10.50;99.90
7046;DHT22;3564;53.326;10.356;2024-02-23T10:26:56;10.60;99.90
7046;DHT22;3564;53.326;10.356;2024-02-23T10:29:23;10.60;99.90
7046;DHT22;3564;53.326;10.356;2024-02-23T10:31:57;10.70;99.80
7046;DHT22;3564;53.326;10.356;2024-02-23T10:34:24;10.70;99.30
7046;DHT22;3564;53.326;10.356;2024-02-23T10:36:53;10.70;99.20
7046;DHT22;3564;53.326;10.356;2024-02-23T10:39:19;10.80;99.40
7046;DHT22;3564;53.326;10.356;2024-02-23T10:42:01;10.90;99.60
7046;DHT22;3564;53.326;10.356;2024-02-23T10:44:30;11.00;99.30
7046;DHT22;3564;53.326;10.356;2024-02-23T10:46:58;11.00;99.00
7046;DHT22;3564;53.326;10.356;2024-02-23T10:49:25;11.00;98.90
7046;DHT22;3564;53.326;10.356;2024-02-23T10:51:54;11.00;98.90
7046;DHT22;3564;53.326;10.356;2024-02-23T10:54:21;11.00;98.40
7046;DHT22;3564;53.326;10.356;2024-02-23T10:56:49;11.00;98.40
7046;DHT22;3564;53.326;10.356;2024-02-23T10:59:16;11.00;97.80
7046;DHT22;3564;53.326;10.356;2024-02-23T11:01:46;10.90;98.00
7046;DHT22;3564;53.326;10.356;2024-02-23T11:04:13;11.00;98.40
7046;DHT22;3564;53.326;10.356;2024-02-23T11:06:39;11.00;98.40
7046;DHT22;3564;53.326;10.356;2024-02-23T11:09:12;11.10;98.40
7046;DHT22;3564;53.326;10.356;2024-02-23T11:11:38;11.10;98.30
7046;DHT22;3564;53.326;10.356;2024-02-23T11:14:13;11.10;98.30
7046;DHT22;3564;53.326;10.356;2024-02-23T11:16:39;11.10;98.40
7046;DHT22;3564;53.326;10.356;2024-02-23T11:19:08;11.10;98.40
7046;DHT22;3564;53.326;10.356;2024-02-23T11:21:37;11.10;98.10
7046;DHT22;3564;53.326;10.356;2024-02-23T11:24:04;11.10;98.10
7046;DHT22;3564;53.326;10.356;2024-02-23T11:26:30;11.10;97.90
7046;DHT22;3564;53.326;10.356;2024-02-23T11:29:10;11.20;98.00
7046;DHT22;3564;53.326;10.356;2024-02-23T11:31:36;11.20;98.10
7046;DHT22;3564;53.326;10.356;2024-02-23T11:34:22;11.20;97.80
7046;DHT22;3564;53.326;10.356;2024-02-23T11:36:52;11.20;97.80
7046;DHT22;3564;53.326;10.356;2024-02-23T11:39:22;11.20;97.30
7046;DHT22;3564;53.326;10.356;2024-02-23T11:41:51;11.20;97.40
7046;DHT22;3564;53.326;10.356;2024-02-23T11:44:17;11.20;97.50
7046;DHT22;3564;53.326;10.356;2024-02-23T11:46:43;11.20;97.60
7046;DHT22;3564;53.326;10.356;2024-02-23T11:49:09;11.20;97.70
7046;DHT22;3564;53.326;10.356;2024-02-23T11:51:35;11.30;97.80
7046;DHT22;3564;53.326;10.356;2024-02-23T11:54:01;11.20;97.40
7046;DHT22;3564;53.326;10.356;2024-02-23T11:56:27;11.20;97.10
7046;DHT22;3564;53.326;10.356;2024-02-23T11:58:54;11.20;97.00
7046;DHT22;3564;53.326;10.356;2024-02-23T12:01:21;11.30;97.00
7046;DHT22;3564;53.326;10.356;2024-02-23T12:03:46;11.20;97.30
7046;DHT22;3564;53.326;10.356;2024-02-23T12:06:14;11.20;97.50
7046;DHT22;3564;53.326;10.356;2024-02-23T12:08:41;11.20;97.60
7046;DHT22;3564;53.326;10.356;2024-02-23T12:11:16;11.20;97.20
7046;DHT22;3564;53.326;10.356;2024-02-23T12:13:41;11.20;97.00
7046;DHT22;3564;53.326;10.356;2024-02-23T12:16:08;11.10;96.60
7046;DHT22;3564;53.326;10.356;2024-02-23T12:18:35;11.10;96.90
7046;DHT22;3564;53.326;10.356;2024-02-23T12:21:01;11.10;97.50
7046;DHT22;3564;53.326;10.356;2024-02-23T12:23:37;11.20;97.00
7046;DHT22;3564;53.326;10.356;2024-02-23T12:26:03;11.20;96.80
7046;DHT22;3564;53.326;10.356;2024-02-23T12:28:29;11.20;96.60
7046;DHT22;3564;53.326;10.356;2024-02-23T12:30:59;11.20;96.40
7046;DHT22;3564;53.326;10.356;2024-02-23T12:33:27;11.10;96.40
7046;DHT22;3564;53.326;10.356;2024-02-23T12:35:54;11.20;96.50
7046;DHT22;3564;53.326;10.356;2024-02-23T12:38:22;11.10;96.20
7046;DHT22;3564;53.326;10.356;2024-02-23T12:40:47;11.10;96.20
7046;DHT22;3564;53.326;10.356;2024-02-23T12:43:13;11.10;96.20
7046;DHT22;3564;53.326;10.356;2024-02-23T12:45:39;11.10;95.60
7046;DHT22;3564;53.326;10.356;2024-02-23T12:48:05;11.20;96.00
7046;DHT22;3564;53.326;10.356;2024-02-23T12:50:30;11.30;96.20
7046;DHT22;3564;53.326;10.356;2024-02-23T12:52:59;11.40;96.40
7046;DHT22;3564;53.326;10.356;2024-02-23T12:55:29;11.50;96.50
7046;DHT22;3564;53.326;10.356;2024-02-23T12:57:54;11.60;96.10
7046;DHT22;3564;53.326;10.356;2024-02-23T13:00:20;11.70;96.20
7046;DHT22;3564;53.326;10.356;2024-02-23T13:02:46;11.70;96.20
7046;DHT22;3564;53.326;10.356;2024-02-23T13:05:12;11.80;96.10
7046;DHT22;3564;53.326;10.356;2024-02-23T13:07:40;11.80;95.70
7046;DHT22;3564;53.326;10.356;2024-02-23T13:10:08;11.80;95.80
7046;DHT22;3564;53.326;10.356;2024-02-23T13:12:33;11.90;95.70
7046;DHT22;3564;53.326;10.356;2024-02-23T13:14:59;11.80;95.10
7046;DHT22;3564;53.326;10.356;2024-02-23T13:17:25;11.80;95.30
7046;DHT22;3564;53.326;10.356;2024-02-23T13:19:53;11.90;95.50
7046;DHT22;3564;53.326;10.356;2024-02-23T13:22:19;11.90;95.30
7046;DHT22;3564;53.326;10.356;2024-02-23T13:24:45;11.80;94.80
7046;DHT22;3564;53.326;10.356;2024-02-23T13:27:10;11.80;95.00
7046;DHT22;3564;53.326;10.356;2024-02-23T13:29:36;11.80;95.00
7046;DHT22;3564;53.326;10.356;2024-02-23T13:32:05;11.80;95.30
7046;DHT22;3564;53.326;10.356;2024-02-23T13:34:34;11.80;95.40
7046;DHT22;3564;53.326;10.356;2024-02-23T13:36:59;11.80;95.20
7046;DHT22;3564;53.326;10.356;2024-02-23T13:39:25;11.80;95.10
7046;DHT22;3564;53.326;10.356;2024-02-23T13:41:50;11.70;95.10
7046;DHT22;3564;53.326;10.356;2024-02-23T13:44:19;11.70;95.10
7046;DHT22;3564;53.326;10.356;2024-02-23T13:46:47;11.70;95.00
7046;DHT22;3564;53.326;10.356;2024-02-23T13:49:13;11.70;94.90
7046;DHT22;3564;53.326;10.356;2024-02-23T13:51:39;11.70;94.90
7046;DHT22;3564;53.326;10.356;2024-02-23T13:54:05;11.70;94.80
7046;DHT22;3564;53.326;10.356;2024-02-23T13:56:33;11.70;94.90
7046;DHT22;3564;53.326;10.356;2024-02-23T13:58:59;11.70;94.80
7046;DHT22;3564;53.326;10.356;2024-02-23T14:01:24;11.70;95.00
7046;DHT22;3564;53.326;10.356;2024-02-23T14:03:53;11.70;95.10
7046;DHT22;3564;53.326;10.356;2024-02-23T14:06:22;11.70;95.20
7046;DHT22;3564;53.326;10.356;2024-02-23T14:08:48;11.70;95.20
7046;DHT22;3564;53.326;10.356;2024-02-23T14:11:16;11.70;95.40
7046;DHT22;3564;53.326;10.356;2024-02-23T14:13:45;11.80;95.60
7046;DHT22;3564;53.326;10.356;2024-02-23T14:16:11;11.80;95.70
7046;DHT22;3564;53.326;10.356;2024-02-23T14:18:37;11.80;95.60
7046;DHT22;3564;53.326;10.356;2024-02-23T14:21:04;11.80;95.50
7046;DHT22;3564;53.326;10.356;2024-02-23T14:23:33;11.80;95.50
7046;DHT22;3564;53.326;10.356;2024-02-23T14:25:59;11.80;95.60
7046;DHT22;3564;53.326;10.356;2024-02-23T14:28:31;11.80;95.40
7046;DHT22;3564;53.326;10.356;2024-02-23T14:30:56;11.80;95.40
7046;DHT22;3564;53.326;10.356;2024-02-23T14:33:22;11.80;95.40
7046;DHT22;3564;53.326;10.356;2024-02-23T14:35:48;11.80;95.30
7046;DHT22;3564;53.326;10.356;2024-02-23T14:38:15;11.90;95.30
7046;DHT22;3564;53.326;10.356;2024-02-23T14:40:44;11.90;95.30
7046;DHT22;3564;53.326;10.356;2024-02-23T14:43:10;11.90;95.40
7046;DHT22;3564;53.326;10.356;2024-02-23T14:45:36;11.90;95.50
7046;DHT22;3564;53.326;10.356;2024-02-23T14:48:02;12.00;95.60
7046;DHT22;3564;53.326;10.356;2024-02-23T14:50:28;12.00;95.60
7046;DHT22;3564;53.326;10.356;2024-02-23T14:52:54;12.00;95.60
7046;DHT22;3564;53.326;10.356;2024-02-23T14:55:19;12.00;95.70
7046;DHT22;3564;53.326;10.356;2024-02-23T14:57:45;12.00;95.90
7046;DHT22;3564;53.326;10.356;2024-02-23T15:00:11;12.00;96.00
7046;DHT22;3564;53.326;10.356;2024-02-23T15:02:38;12.00;96.10
7046;DHT22;3564;53.326;10.356;2024-02-23T15:05:05;12.00;96.10
7046;DHT22;3564;53.326;10.356;2024-02-23T15:07:32;12.10;96.20
7046;DHT22;3564;53.326;10.356;2024-02-23T15:10:01;12.10;96.20
7046;DHT22;3564;53.326;10.356;2024-02-23T15:12:31;12.10;96.20
7046;DHT22;3564;53.326;10.356;2024-02-23T15:14:57;12.20;96.50
7046;DHT22;3564;53.326;10.356;2024-02-23T15:17:25;12.20;96.50
7046;DHT22;3564;53.326;10.356;2024-02-23T15:19:51;12.20;96.60
7046;DHT22;3564;53.326;10.356;2024-02-23T15:22:19;12.30;96.60
7046;DHT22;3564;53.326;10.356;2024-02-23T15:24:45;12.30;96.40
7046;DHT22;3564;53.326;10.356;2024-02-23T15:27:21;12.30;96.30
7046;DHT22;3564;53.326;10.356;2024-02-23T15:29:47;12.30;96.30
7046;DHT22;3564;53.326;10.356;2024-02-23T15:32:14;12.30;96.30
7046;DHT22;3564;53.326;10.356;2024-02-23T15:34:40;12.30;96.40
7046;DHT22;3564;53.326;10.356;2024-02-23T15:37:06;12.30;96.60
7046;DHT22;3564;53.326;10.356;2024-02-23T15:39:32;12.50;96.90
7046;DHT22;3564;53.326;10.356;2024-02-23T15:41:58;12.60;97.20
7046;DHT22;3564;53.326;10.356;2024-02-23T15:44:24;12.70;96.90
7046;DHT22;3564;53.326;10.356;2024-02-23T15:46:49;12.80;96.70
7046;DHT22;3564;53.326;10.356;2024-02-23T15:49:15;12.70;96.30
7046;DHT22;3564;53.326;10.356;2024-02-23T15:51:44;12.80;96.20